UUMO

Ostafyevo International Airport

Moscow, Russian Federation
TAF UUMO 181959Z 1821/1906 05006MPS 9999 BKN015 TEMPO 1821/1906 2100 -SHRA BR BKN007 SCT020CB
Issued Valid From Valid To
Jul-18 @ 19:59 UTC
(2 hours ago)
Jul-18 @ 21:00 UTC
(an hour ago)
Jul-19 @ 06:00 UTC
(in 8 hours)
Jul-18 @ 21:00 to Jul-19 @ 06:00
TAF UUMO 181959Z 1821/1906 05006MPS 9999 BKN015
Wind Visibility Clouds
50° at 12 knots 10,000+ meters
  • Broken at 1,500' AGL
Temporary Jul-18 @ 21:00 to Jul-19 @ 06:00
TEMPO 1821/1906 2100 -SHRA BR BKN007 SCT020CB
Visibility Clouds Conditions
2,092 meters
  • Broken at 700' AGL
  • Scattered at 2,000' AGL
  • Light Rain
  • Mist
TAF UUMO 181959Z 1821/1906 05006MPS 9999 BKN015 TEMPO 1821/1906 2100 -SHRA BR BKN007 SCT020CB
Issued Jul-18 @ 19:59 UTC
(2 hours ago)
Valid From Jul-18 @ 21:00 UTC
(an hour ago)
Valid To Jul-19 @ 06:00 UTC
(in 8 hours)
Jul-18 @ 21:00 - Jul-19 @ 06:00
Wind Visibility
50° at 12 knots 10,000+ meters
Clouds
  • Broken at 1,500' AGL
Temporary Jul-18 @ 21:00 - Jul-19 @ 06:00
Clouds
  • Broken at 700' AGL
  • Scattered at 2,000' AGL
Conditions
  • Light Rain
  • Mist